sensor_id;sensor_type;location;lat;lon;timestamp;P1;durP1;ratioP1;P2;durP2;ratioP2
25752;SDS011;13600;50.816;4.416;2022-08-25T00:01:07;5.25;;;4.15;;
25752;SDS011;13600;50.816;4.416;2022-08-25T00:03:34;6.78;;;4.30;;
25752;SDS011;13600;50.816;4.416;2022-08-25T00:06:00;12.75;;;4.47;;
25752;SDS011;13600;50.816;4.416;2022-08-25T00:08:25;8.63;;;4.30;;
25752;SDS011;13600;50.816;4.416;2022-08-25T00:10:51;6.10;;;4.40;;
25752;SDS011;13600;50.816;4.416;2022-08-25T00:13:17;7.13;;;4.72;;
25752;SDS011;13600;50.816;4.416;2022-08-25T00:15:42;12.70;;;5.00;;
25752;SDS011;13600;50.816;4.416;2022-08-25T00:18:09;7.22;;;4.43;;
25752;SDS011;13600;50.816;4.416;2022-08-25T00:20:34;6.57;;;4.15;;
25752;SDS011;13600;50.816;4.416;2022-08-25T00:23:00;10.45;;;4.85;;
25752;SDS011;13600;50.816;4.416;2022-08-25T00:25:25;10.68;;;4.85;;
25752;SDS011;13600;50.816;4.416;2022-08-25T00:27:51;9.15;;;4.30;;
25752;SDS011;13600;50.816;4.416;2022-08-25T00:30:17;9.95;;;4.70;;
25752;SDS011;13600;50.816;4.416;2022-08-25T00:32:43;9.57;;;4.88;;
25752;SDS011;13600;50.816;4.416;2022-08-25T00:35:09;8.57;;;4.40;;
25752;SDS011;13600;50.816;4.416;2022-08-25T00:37:35;8.55;;;4.78;;
25752;SDS011;13600;50.816;4.416;2022-08-25T00:40:03;8.77;;;4.90;;
25752;SDS011;13600;50.816;4.416;2022-08-25T00:42:29;8.23;;;4.43;;
25752;SDS011;13600;50.816;4.416;2022-08-25T00:44:55;8.95;;;4.70;;
25752;SDS011;13600;50.816;4.416;2022-08-25T00:47:22;6.72;;;4.63;;
25752;SDS011;13600;50.816;4.416;2022-08-25T00:49:53;6.15;;;4.55;;
25752;SDS011;13600;50.816;4.416;2022-08-25T00:57:17;6.28;;;4.60;;
25752;SDS011;13600;50.816;4.416;2022-08-25T00:59:48;6.05;;;4.30;;
25752;SDS011;13600;50.816;4.416;2022-08-25T01:02:14;6.18;;;4.55;;
25752;SDS011;13600;50.816;4.416;2022-08-25T01:04:44;7.22;;;4.53;;
25752;SDS011;13600;50.816;4.416;2022-08-25T01:07:10;7.55;;;4.43;;
25752;SDS011;13600;50.816;4.416;2022-08-25T01:09:36;7.75;;;4.45;;
25752;SDS011;13600;50.816;4.416;2022-08-25T01:12:02;9.13;;;4.35;;
25752;SDS011;13600;50.816;4.416;2022-08-25T01:14:29;5.80;;;4.80;;
25752;SDS011;13600;50.816;4.416;2022-08-25T01:16:56;7.38;;;4.88;;
25752;SDS011;13600;50.816;4.416;2022-08-25T01:19:23;7.07;;;4.90;;
25752;SDS011;13600;50.816;4.416;2022-08-25T01:21:51;7.40;;;5.00;;
25752;SDS011;13600;50.816;4.416;2022-08-25T01:26:56;9.90;;;4.95;;
25752;SDS011;13600;50.816;4.416;2022-08-25T01:29:22;9.23;;;5.22;;
25752;SDS011;13600;50.816;4.416;2022-08-25T01:31:58;6.93;;;4.65;;
25752;SDS011;13600;50.816;4.416;2022-08-25T01:34:27;11.82;;;5.07;;
25752;SDS011;13600;50.816;4.416;2022-08-25T01:36:55;5.30;;;4.80;;
25752;SDS011;13600;50.816;4.416;2022-08-25T01:39:22;8.57;;;5.20;;
25752;SDS011;13600;50.816;4.416;2022-08-25T01:41:54;6.78;;;4.50;;
25752;SDS011;13600;50.816;4.416;2022-08-25T01:44:30;7.57;;;4.88;;
25752;SDS011;13600;50.816;4.416;2022-08-25T01:46:57;5.85;;;4.80;;
25752;SDS011;13600;50.816;4.416;2022-08-25T01:49:23;6.95;;;4.78;;
25752;SDS011;13600;50.816;4.416;2022-08-25T01:51:55;5.88;;;4.60;;
25752;SDS011;13600;50.816;4.416;2022-08-25T01:54:25;5.45;;;4.78;;
25752;SDS011;13600;50.816;4.416;2022-08-25T01:56:50;12.00;;;4.70;;
25752;SDS011;13600;50.816;4.416;2022-08-25T01:59:17;9.55;;;5.30;;
25752;SDS011;13600;50.816;4.416;2022-08-25T02:01:44;7.82;;;4.63;;
25752;SDS011;13600;50.816;4.416;2022-08-25T02:04:10;9.07;;;5.00;;
25752;SDS011;13600;50.816;4.416;2022-08-25T02:06:36;9.40;;;4.82;;
25752;SDS011;13600;50.816;4.416;2022-08-25T02:09:07;5.13;;;4.50;;
25752;SDS011;13600;50.816;4.416;2022-08-25T02:11:36;6.43;;;4.78;;
25752;SDS011;13600;50.816;4.416;2022-08-25T02:14:03;5.65;;;5.10;;
25752;SDS011;13600;50.816;4.416;2022-08-25T02:16:30;6.65;;;5.22;;
25752;SDS011;13600;50.816;4.416;2022-08-25T02:18:58;9.52;;;5.85;;
25752;SDS011;13600;50.816;4.416;2022-08-25T02:21:24;7.68;;;5.20;;
25752;SDS011;13600;50.816;4.416;2022-08-25T02:23:50;8.10;;;4.53;;
25752;SDS011;13600;50.816;4.416;2022-08-25T02:26:17;10.48;;;4.90;;
25752;SDS011;13600;50.816;4.416;2022-08-25T02:28:47;9.27;;;5.18;;
25752;SDS011;13600;50.816;4.416;2022-08-25T02:31:15;10.55;;;5.15;;
25752;SDS011;13600;50.816;4.416;2022-08-25T02:33:44;9.00;;;4.70;;
25752;SDS011;13600;50.816;4.416;2022-08-25T02:36:09;9.95;;;5.03;;
25752;SDS011;13600;50.816;4.416;2022-08-25T02:38:36;9.02;;;5.57;;
25752;SDS011;13600;50.816;4.416;2022-08-25T02:41:07;10.15;;;5.18;;
25752;SDS011;13600;50.816;4.416;2022-08-25T02:43:36;7.82;;;5.22;;
25752;SDS011;13600;50.816;4.416;2022-08-25T02:46:03;8.23;;;5.72;;
25752;SDS011;13600;50.816;4.416;2022-08-25T02:48:29;6.43;;;5.00;;
25752;SDS011;13600;50.816;4.416;2022-08-25T02:50:57;6.63;;;4.72;;
25752;SDS011;13600;50.816;4.416;2022-08-25T02:53:25;11.88;;;5.65;;
25752;SDS011;13600;50.816;4.416;2022-08-25T02:55:51;7.50;;;5.15;;
25752;SDS011;13600;50.816;4.416;2022-08-25T02:58:17;6.22;;;5.18;;
25752;SDS011;13600;50.816;4.416;2022-08-25T03:00:42;6.63;;;5.20;;
25752;SDS011;13600;50.816;4.416;2022-08-25T03:03:10;7.43;;;5.00;;
25752;SDS011;13600;50.816;4.416;2022-08-25T03:05:35;6.18;;;5.10;;
25752;SDS011;13600;50.816;4.416;2022-08-25T03:08:01;10.13;;;5.28;;
25752;SDS011;13600;50.816;4.416;2022-08-25T03:10:28;7.55;;;5.22;;
25752;SDS011;13600;50.816;4.416;2022-08-25T03:12:54;6.63;;;5.05;;
25752;SDS011;13600;50.816;4.416;2022-08-25T03:15:19;8.52;;;5.97;;
25752;SDS011;13600;50.816;4.416;2022-08-25T03:17:46;8.85;;;5.68;;
25752;SDS011;13600;50.816;4.416;2022-08-25T03:20:13;8.20;;;5.30;;
25752;SDS011;13600;50.816;4.416;2022-08-25T03:22:40;7.63;;;5.68;;
25752;SDS011;13600;50.816;4.416;2022-08-25T03:25:06;6.45;;;5.60;;
25752;SDS011;13600;50.816;4.416;2022-08-25T03:27:51;8.05;;;5.25;;
25752;SDS011;13600;50.816;4.416;2022-08-25T03:30:18;6.78;;;5.40;;
25752;SDS011;13600;50.816;4.416;2022-08-25T03:32:44;6.43;;;5.28;;
25752;SDS011;13600;50.816;4.416;2022-08-25T03:35:12;7.43;;;5.65;;
25752;SDS011;13600;50.816;4.416;2022-08-25T03:37:38;6.50;;;5.25;;
25752;SDS011;13600;50.816;4.416;2022-08-25T03:40:06;6.95;;;5.35;;
25752;SDS011;13600;50.816;4.416;2022-08-25T03:42:35;8.95;;;5.50;;
25752;SDS011;13600;50.816;4.416;2022-08-25T03:45:04;8.60;;;5.03;;
25752;SDS011;13600;50.816;4.416;2022-08-25T03:47:30;6.47;;;5.13;;
25752;SDS011;13600;50.816;4.416;2022-08-25T03:49:56;7.47;;;5.35;;
25752;SDS011;13600;50.816;4.416;2022-08-25T03:52:22;9.80;;;5.47;;
25752;SDS011;13600;50.816;4.416;2022-08-25T03:54:47;6.53;;;5.28;;
25752;SDS011;13600;50.816;4.416;2022-08-25T03:57:13;7.53;;;5.10;;
25752;SDS011;13600;50.816;4.416;2022-08-25T03:59:39;9.88;;;5.30;;
25752;SDS011;13600;50.816;4.416;2022-08-25T04:02:05;8.40;;;5.20;;
25752;SDS011;13600;50.816;4.416;2022-08-25T04:04:31;7.57;;;5.30;;
25752;SDS011;13600;50.816;4.416;2022-08-25T04:06:57;9.00;;;5.15;;
25752;SDS011;13600;50.816;4.416;2022-08-25T04:09:23;10.02;;;5.55;;
25752;SDS011;13600;50.816;4.416;2022-08-25T04:11:50;10.35;;;5.30;;
25752;SDS011;13600;50.816;4.416;2022-08-25T04:14:16;8.75;;;5.13;;
25752;SDS011;13600;50.816;4.416;2022-08-25T04:16:42;7.88;;;5.35;;
25752;SDS011;13600;50.816;4.416;2022-08-25T04:19:08;11.20;;;5.47;;
25752;SDS011;13600;50.816;4.416;2022-08-25T04:21:35;8.98;;;5.45;;
25752;SDS011;13600;50.816;4.416;2022-08-25T04:24:03;9.40;;;5.20;;
25752;SDS011;13600;50.816;4.416;2022-08-25T04:26:37;11.30;;;5.35;;
25752;SDS011;13600;50.816;4.416;2022-08-25T04:29:07;13.45;;;5.07;;
25752;SDS011;13600;50.816;4.416;2022-08-25T04:31:34;9.40;;;5.55;;
25752;SDS011;13600;50.816;4.416;2022-08-25T04:34:02;14.30;;;5.97;;
25752;SDS011;13600;50.816;4.416;2022-08-25T04:36:29;9.25;;;5.32;;
25752;SDS011;13600;50.816;4.416;2022-08-25T04:38:55;8.45;;;5.60;;
25752;SDS011;13600;50.816;4.416;2022-08-25T04:41:22;7.95;;;5.25;;
25752;SDS011;13600;50.816;4.416;2022-08-25T04:43:48;9.65;;;5.38;;
25752;SDS011;13600;50.816;4.416;2022-08-25T04:46:16;9.52;;;5.68;;
25752;SDS011;13600;50.816;4.416;2022-08-25T04:48:47;9.95;;;5.30;;
25752;SDS011;13600;50.816;4.416;2022-08-25T04:51:16;11.48;;;5.72;;
25752;SDS011;13600;50.816;4.416;2022-08-25T04:53:44;10.13;;;5.53;;
25752;SDS011;13600;50.816;4.416;2022-08-25T04:56:11;8.10;;;5.22;;
25752;SDS011;13600;50.816;4.416;2022-08-25T04:58:39;12.70;;;5.25;;
25752;SDS011;13600;50.816;4.416;2022-08-25T05:01:10;11.20;;;5.50;;
25752;SDS011;13600;50.816;4.416;2022-08-25T05:03:41;11.27;;;5.72;;
25752;SDS011;13600;50.816;4.416;2022-08-25T05:06:07;9.27;;;5.10;;
25752;SDS011;13600;50.816;4.416;2022-08-25T05:08:33;6.47;;;5.20;;
25752;SDS011;13600;50.816;4.416;2022-08-25T05:11:04;8.00;;;5.00;;
25752;SDS011;13600;50.816;4.416;2022-08-25T05:13:33;9.30;;;5.40;;
25752;SDS011;13600;50.816;4.416;2022-08-25T05:16:00;8.95;;;5.25;;
25752;SDS011;13600;50.816;4.416;2022-08-25T05:18:28;9.90;;;5.40;;
25752;SDS011;13600;50.816;4.416;2022-08-25T05:20:56;9.38;;;4.95;;
25752;SDS011;13600;50.816;4.416;2022-08-25T05:23:48;9.05;;;5.32;;
25752;SDS011;13600;50.816;4.416;2022-08-25T05:26:16;7.90;;;4.60;;
25752;SDS011;13600;50.816;4.416;2022-08-25T05:28:44;7.82;;;4.75;;
25752;SDS011;13600;50.816;4.416;2022-08-25T05:31:11;11.77;;;4.85;;
25752;SDS011;13600;50.816;4.416;2022-08-25T05:33:39;9.88;;;5.22;;
25752;SDS011;13600;50.816;4.416;2022-08-25T05:36:06;12.35;;;5.18;;
25752;SDS011;13600;50.816;4.416;2022-08-25T05:38:34;12.65;;;4.80;;
25752;SDS011;13600;50.816;4.416;2022-08-25T05:41:01;9.15;;;4.78;;
25752;SDS011;13600;50.816;4.416;2022-08-25T05:43:31;10.43;;;4.05;;
25752;SDS011;13600;50.816;4.416;2022-08-25T05:45:57;11.15;;;4.60;;
25752;SDS011;13600;50.816;4.416;2022-08-25T05:48:24;9.27;;;4.50;;
25752;SDS011;13600;50.816;4.416;2022-08-25T05:50:54;8.00;;;4.03;;
25752;SDS011;13600;50.816;4.416;2022-08-25T05:53:22;9.77;;;4.10;;
25752;SDS011;13600;50.816;4.416;2022-08-25T05:55:49;11.60;;;4.43;;
25752;SDS011;13600;50.816;4.416;2022-08-25T05:58:16;9.88;;;4.00;;
25752;SDS011;13600;50.816;4.416;2022-08-25T06:00:42;11.45;;;3.97;;
25752;SDS011;13600;50.816;4.416;2022-08-25T06:03:08;12.15;;;4.05;;
25752;SDS011;13600;50.816;4.416;2022-08-25T06:05:34;9.35;;;3.72;;
25752;SDS011;13600;50.816;4.416;2022-08-25T06:08:00;10.52;;;3.67;;
25752;SDS011;13600;50.816;4.416;2022-08-25T06:10:26;6.78;;;3.47;;
25752;SDS011;13600;50.816;4.416;2022-08-25T06:12:52;12.88;;;3.83;;
25752;SDS011;13600;50.816;4.416;2022-08-25T06:15:19;6.07;;;3.20;;
25752;SDS011;13600;50.816;4.416;2022-08-25T06:17:46;6.88;;;3.45;;
25752;SDS011;13600;50.816;4.416;2022-08-25T06:20:18;12.52;;;3.53;;
25752;SDS011;13600;50.816;4.416;2022-08-25T06:22:46;10.27;;;3.67;;
25752;SDS011;13600;50.816;4.416;2022-08-25T06:25:13;8.98;;;3.65;;
25752;SDS011;13600;50.816;4.416;2022-08-25T06:27:40;11.55;;;3.50;;
25752;SDS011;13600;50.816;4.416;2022-08-25T06:30:07;11.32;;;3.80;;
25752;SDS011;13600;50.816;4.416;2022-08-25T06:32:38;7.72;;;3.53;;
25752;SDS011;13600;50.816;4.416;2022-08-25T06:35:05;10.88;;;3.78;;
25752;SDS011;13600;50.816;4.416;2022-08-25T06:37:32;13.55;;;3.65;;
25752;SDS011;13600;50.816;4.416;2022-08-25T06:39:58;9.77;;;3.25;;
25752;SDS011;13600;50.816;4.416;2022-08-25T06:42:24;9.32;;;3.63;;
25752;SDS011;13600;50.816;4.416;2022-08-25T06:44:50;9.10;;;3.55;;
25752;SDS011;13600;50.816;4.416;2022-08-25T06:47:16;11.65;;;3.50;;
25752;SDS011;13600;50.816;4.416;2022-08-25T06:49:42;11.20;;;3.67;;
25752;SDS011;13600;50.816;4.416;2022-08-25T06:52:08;11.60;;;3.53;;
25752;SDS011;13600;50.816;4.416;2022-08-25T06:54:35;10.75;;;3.78;;
25752;SDS011;13600;50.816;4.416;2022-08-25T06:57:01;10.57;;;3.33;;
25752;SDS011;13600;50.816;4.416;2022-08-25T06:59:27;6.88;;;3.10;;
25752;SDS011;13600;50.816;4.416;2022-08-25T07:01:53;9.68;;;3.60;;
25752;SDS011;13600;50.816;4.416;2022-08-25T07:04:19;9.32;;;3.28;;
25752;SDS011;13600;50.816;4.416;2022-08-25T07:06:45;12.05;;;2.97;;
25752;SDS011;13600;50.816;4.416;2022-08-25T07:09:11;8.10;;;2.97;;
25752;SDS011;13600;50.816;4.416;2022-08-25T07:11:39;17.80;;;3.05;;
25752;SDS011;13600;50.816;4.416;2022-08-25T07:14:06;12.45;;;3.22;;
25752;SDS011;13600;50.816;4.416;2022-08-25T07:16:33;7.35;;;2.97;;
25752;SDS011;13600;50.816;4.416;2022-08-25T07:19:00;6.45;;;2.78;;
25752;SDS011;13600;50.816;4.416;2022-08-25T07:21:27;8.63;;;2.80;;
25752;SDS011;13600;50.816;4.416;2022-08-25T07:23:54;9.20;;;3.25;;
25752;SDS011;13600;50.816;4.416;2022-08-25T07:26:23;8.82;;;2.72;;
25752;SDS011;13600;50.816;4.416;2022-08-25T07:28:50;8.15;;;2.25;;
25752;SDS011;13600;50.816;4.416;2022-08-25T07:31:16;5.82;;;2.10;;
25752;SDS011;13600;50.816;4.416;2022-08-25T07:33:41;6.70;;;2.25;;
25752;SDS011;13600;50.816;4.416;2022-08-25T07:36:27;7.05;;;2.42;;
25752;SDS011;13600;50.816;4.416;2022-08-25T07:38:54;10.75;;;2.20;;
25752;SDS011;13600;50.816;4.416;2022-08-25T07:41:20;4.18;;;2.13;;
25752;SDS011;13600;50.816;4.416;2022-08-25T07:43:46;4.80;;;2.05;;
25752;SDS011;13600;50.816;4.416;2022-08-25T07:46:12;5.68;;;2.22;;
25752;SDS011;13600;50.816;4.416;2022-08-25T07:48:39;7.90;;;2.30;;
25752;SDS011;13600;50.816;4.416;2022-08-25T07:51:08;9.15;;;2.35;;
25752;SDS011;13600;50.816;4.416;2022-08-25T07:53:35;11.00;;;2.35;;
25752;SDS011;13600;50.816;4.416;2022-08-25T07:56:01;7.03;;;2.10;;
25752;SDS011;13600;50.816;4.416;2022-08-25T07:58:27;10.48;;;2.10;;
25752;SDS011;13600;50.816;4.416;2022-08-25T08:00:53;8.15;;;2.03;;
25752;SDS011;13600;50.816;4.416;2022-08-25T08:03:19;7.28;;;2.13;;
25752;SDS011;13600;50.816;4.416;2022-08-25T08:05:45;4.30;;;2.05;;
25752;SDS011;13600;50.816;4.416;2022-08-25T08:08:10;5.72;;;2.00;;
25752;SDS011;13600;50.816;4.416;2022-08-25T08:10:39;9.65;;;2.25;;
25752;SDS011;13600;50.816;4.416;2022-08-25T08:13:06;4.03;;;2.15;;
25752;SDS011;13600;50.816;4.416;2022-08-25T08:15:32;8.93;;;2.15;;
25752;SDS011;13600;50.816;4.416;2022-08-25T08:17:58;6.85;;;1.85;;
25752;SDS011;13600;50.816;4.416;2022-08-25T08:20:24;5.65;;;2.05;;
25752;SDS011;13600;50.816;4.416;2022-08-25T08:22:50;8.10;;;2.35;;
25752;SDS011;13600;50.816;4.416;2022-08-25T08:25:16;10.18;;;2.42;;
25752;SDS011;13600;50.816;4.416;2022-08-25T08:27:42;5.70;;;2.13;;
25752;SDS011;13600;50.816;4.416;2022-08-25T08:30:09;8.68;;;2.22;;
25752;SDS011;13600;50.816;4.416;2022-08-25T08:32:36;8.07;;;2.20;;
25752;SDS011;13600;50.816;4.416;2022-08-25T08:35:01;8.98;;;2.45;;
25752;SDS011;13600;50.816;4.416;2022-08-25T08:37:28;9.20;;;2.00;;
25752;SDS011;13600;50.816;4.416;2022-08-25T08:39:53;6.10;;;2.08;;
25752;SDS011;13600;50.816;4.416;2022-08-25T08:55:46;7.47;;;2.13;;
25752;SDS011;13600;50.816;4.416;2022-08-25T08:58:19;9.02;;;2.13;;
25752;SDS011;13600;50.816;4.416;2022-08-25T09:00:48;7.90;;;1.80;;
25752;SDS011;13600;50.816;4.416;2022-08-25T09:03:28;8.27;;;2.20;;
25752;SDS011;13600;50.816;4.416;2022-08-25T09:06:02;9.07;;;1.73;;
25752;SDS011;13600;50.816;4.416;2022-08-25T09:08:32;7.30;;;1.88;;
25752;SDS011;13600;50.816;4.416;2022-08-25T09:11:19;8.32;;;1.90;;
25752;SDS011;13600;50.816;4.416;2022-08-25T09:30:27;5.53;;;1.77;;
25752;SDS011;13600;50.816;4.416;2022-08-25T09:33:01;9.60;;;1.95;;
25752;SDS011;13600;50.816;4.416;2022-08-25T09:35:33;4.78;;;1.50;;
25752;SDS011;13600;50.816;4.416;2022-08-25T09:40:29;8.00;;;1.50;;
25752;SDS011;13600;50.816;4.416;2022-08-25T09:42:57;4.90;;;1.50;;
25752;SDS011;13600;50.816;4.416;2022-08-25T09:45:29;5.45;;;1.35;;
25752;SDS011;13600;50.816;4.416;2022-08-25T09:48:01;6.45;;;1.55;;
25752;SDS011;13600;50.816;4.416;2022-08-25T09:50:47;5.53;;;1.58;;
25752;SDS011;13600;50.816;4.416;2022-08-25T09:53:15;3.67;;;1.35;;
25752;SDS011;13600;50.816;4.416;2022-08-25T09:55:42;14.50;;;2.25;;
25752;SDS011;13600;50.816;4.416;2022-08-25T09:58:19;6.35;;;1.30;;
25752;SDS011;13600;50.816;4.416;2022-08-25T10:01:01;5.85;;;1.38;;
25752;SDS011;13600;50.816;4.416;2022-08-25T10:03:57;4.03;;;1.30;;
25752;SDS011;13600;50.816;4.416;2022-08-25T10:06:48;4.45;;;1.50;;
25752;SDS011;13600;50.816;4.416;2022-08-25T10:09:21;9.57;;;1.50;;
25752;SDS011;13600;50.816;4.416;2022-08-25T10:11:50;4.45;;;1.30;;
25752;SDS011;13600;50.816;4.416;2022-08-25T10:16:51;8.55;;;1.50;;
25752;SDS011;13600;50.816;4.416;2022-08-25T10:22:10;8.25;;;1.65;;
25752;SDS011;13600;50.816;4.416;2022-08-25T10:24:46;5.30;;;1.30;;
25752;SDS011;13600;50.816;4.416;2022-08-25T10:27:24;5.63;;;1.50;;
25752;SDS011;13600;50.816;4.416;2022-08-25T10:30:14;5.85;;;1.40;;
25752;SDS011;13600;50.816;4.416;2022-08-25T10:35:31;6.15;;;1.50;;
25752;SDS011;13600;50.816;4.416;2022-08-25T10:40:39;2.38;;;1.17;;
25752;SDS011;13600;50.816;4.416;2022-08-25T10:43:23;4.60;;;1.33;;
25752;SDS011;13600;50.816;4.416;2022-08-25T10:46:25;5.22;;;1.40;;
25752;SDS011;13600;50.816;4.416;2022-08-25T11:08:41;6.40;;;1.48;;
25752;SDS011;13600;50.816;4.416;2022-08-25T11:11:16;3.92;;;1.30;;
25752;SDS011;13600;50.816;4.416;2022-08-25T11:16:21;5.50;;;1.30;;
25752;SDS011;13600;50.816;4.416;2022-08-25T11:21:30;4.07;;;1.20;;
25752;SDS011;13600;50.816;4.416;2022-08-25T11:24:09;4.65;;;1.40;;
25752;SDS011;13600;50.816;4.416;2022-08-25T11:26:46;3.35;;;1.30;;
25752;SDS011;13600;50.816;4.416;2022-08-25T11:29:17;3.70;;;1.30;;
25752;SDS011;13600;50.816;4.416;2022-08-25T11:31:46;4.03;;;1.33;;
25752;SDS011;13600;50.816;4.416;2022-08-25T11:34:14;5.30;;;1.42;;
25752;SDS011;13600;50.816;4.416;2022-08-25T11:36:47;6.28;;;1.45;;
25752;SDS011;13600;50.816;4.416;2022-08-25T11:51:39;5.00;;;1.25;;
25752;SDS011;13600;50.816;4.416;2022-08-25T11:54:13;3.30;;;1.50;;
25752;SDS011;13600;50.816;4.416;2022-08-25T11:57:16;6.05;;;1.45;;
25752;SDS011;13600;50.816;4.416;2022-08-25T12:05:00;8.40;;;1.83;;
25752;SDS011;13600;50.816;4.416;2022-08-25T12:23:27;10.80;;;1.63;;
25752;SDS011;13600;50.816;4.416;2022-08-25T12:29:10;3.83;;;1.30;;
25752;SDS011;13600;50.816;4.416;2022-08-25T12:31:50;5.88;;;1.38;;
25752;SDS011;13600;50.816;4.416;2022-08-25T12:34:41;7.07;;;1.30;;
25752;SDS011;13600;50.816;4.416;2022-08-25T12:37:27;7.05;;;1.50;;
25752;SDS011;13600;50.816;4.416;2022-08-25T12:42:31;2.70;;;1.27;;
25752;SDS011;13600;50.816;4.416;2022-08-25T12:45:09;5.03;;;1.10;;
25752;SDS011;13600;50.816;4.416;2022-08-25T12:47:45;5.93;;;1.20;;
25752;SDS011;13600;50.816;4.416;2022-08-25T12:53:13;5.43;;;1.40;;
25752;SDS011;13600;50.816;4.416;2022-08-25T12:55:50;5.20;;;1.25;;
25752;SDS011;13600;50.816;4.416;2022-08-25T12:58:20;2.92;;;1.10;;
25752;SDS011;13600;50.816;4.416;2022-08-25T13:00:53;3.22;;;1.10;;
25752;SDS011;13600;50.816;4.416;2022-08-25T13:14:41;5.32;;;1.20;;
25752;SDS011;13600;50.816;4.416;2022-08-25T13:17:09;3.80;;;1.15;;
25752;SDS011;13600;50.816;4.416;2022-08-25T13:19:36;3.20;;;1.20;;
25752;SDS011;13600;50.816;4.416;2022-08-25T13:22:08;5.22;;;1.42;;
25752;SDS011;13600;50.816;4.416;2022-08-25T13:24:39;3.25;;;1.35;;
25752;SDS011;13600;50.816;4.416;2022-08-25T13:27:07;3.22;;;1.30;;
25752;SDS011;13600;50.816;4.416;2022-08-25T13:29:49;4.00;;;1.20;;
25752;SDS011;13600;50.816;4.416;2022-08-25T13:32:23;7.13;;;1.50;;
25752;SDS011;13600;50.816;4.416;2022-08-25T13:37:43;7.38;;;1.30;;
25752;SDS011;13600;50.816;4.416;2022-08-25T13:40:15;5.85;;;1.50;;
25752;SDS011;13600;50.816;4.416;2022-08-25T13:42:49;5.18;;;1.30;;
25752;SDS011;13600;50.816;4.416;2022-08-25T13:45:20;4.03;;;1.30;;
25752;SDS011;13600;50.816;4.416;2022-08-25T13:47:52;2.83;;;1.38;;
25752;SDS011;13600;50.816;4.416;2022-08-25T13:50:19;2.33;;;1.30;;
25752;SDS011;13600;50.816;4.416;2022-08-25T13:52:58;3.08;;;1.40;;
25752;SDS011;13600;50.816;4.416;2022-08-25T13:58:01;4.63;;;1.70;;
25752;SDS011;13600;50.816;4.416;2022-08-25T14:01:12;6.28;;;1.52;;
25752;SDS011;13600;50.816;4.416;2022-08-25T14:06:34;3.80;;;1.55;;
25752;SDS011;13600;50.816;4.416;2022-08-25T14:11:29;7.63;;;1.60;;
25752;SDS011;13600;50.816;4.416;2022-08-25T14:13:59;4.13;;;1.50;;
25752;SDS011;13600;50.816;4.416;2022-08-25T14:16:27;5.60;;;1.60;;
25752;SDS011;13600;50.816;4.416;2022-08-25T14:18:56;5.97;;;1.40;;
25752;SDS011;13600;50.816;4.416;2022-08-25T14:21:25;8.27;;;2.00;;
25752;SDS011;13600;50.816;4.416;2022-08-25T14:23:53;10.60;;;3.40;;
25752;SDS011;13600;50.816;4.416;2022-08-25T14:26:20;12.68;;;2.90;;
25752;SDS011;13600;50.816;4.416;2022-08-25T14:28:46;10.23;;;3.13;;
25752;SDS011;13600;50.816;4.416;2022-08-25T14:31:35;10.43;;;3.10;;
25752;SDS011;13600;50.816;4.416;2022-08-25T14:36:27;9.45;;;2.90;;
25752;SDS011;13600;50.816;4.416;2022-08-25T14:38:54;13.10;;;3.22;;
25752;SDS011;13600;50.816;4.416;2022-08-25T14:41:19;13.40;;;3.40;;
25752;SDS011;13600;50.816;4.416;2022-08-25T14:43:47;11.70;;;3.35;;
25752;SDS011;13600;50.816;4.416;2022-08-25T14:46:17;16.63;;;3.35;;
25752;SDS011;13600;50.816;4.416;2022-08-25T14:48:45;8.37;;;3.10;;
25752;SDS011;13600;50.816;4.416;2022-08-25T14:51:14;14.55;;;3.10;;
25752;SDS011;13600;50.816;4.416;2022-08-25T14:53:41;7.07;;;3.20;;
25752;SDS011;13600;50.816;4.416;2022-08-25T14:56:08;8.93;;;2.63;;
25752;SDS011;13600;50.816;4.416;2022-08-25T14:58:33;15.85;;;3.15;;
25752;SDS011;13600;50.816;4.416;2022-08-25T15:00:59;6.95;;;2.70;;
25752;SDS011;13600;50.816;4.416;2022-08-25T15:04:00;11.00;;;2.80;;
25752;SDS011;13600;50.816;4.416;2022-08-25T15:06:19;9.75;;;2.80;;
25752;SDS011;13600;50.816;4.416;2022-08-25T15:08:44;11.70;;;2.63;;
25752;SDS011;13600;50.816;4.416;2022-08-25T15:11:29;9.77;;;2.20;;
25752;SDS011;13600;50.816;4.416;2022-08-25T15:13:56;10.45;;;2.90;;
25752;SDS011;13600;50.816;4.416;2022-08-25T15:18:49;9.98;;;3.13;;
25752;SDS011;13600;50.816;4.416;2022-08-25T15:21:15;7.80;;;2.65;;
25752;SDS011;13600;50.816;4.416;2022-08-25T15:23:41;11.55;;;2.60;;
25752;SDS011;13600;50.816;4.416;2022-08-25T15:26:07;8.02;;;2.78;;
25752;SDS011;13600;50.816;4.416;2022-08-25T15:28:40;10.63;;;3.50;;
25752;SDS011;13600;50.816;4.416;2022-08-25T15:33:37;13.35;;;4.93;;
25752;SDS011;13600;50.816;4.416;2022-08-25T15:36:05;14.73;;;4.80;;
25752;SDS011;13600;50.816;4.416;2022-08-25T15:38:35;11.57;;;4.18;;
25752;SDS011;13600;50.816;4.416;2022-08-25T15:41:02;13.98;;;4.95;;
25752;SDS011;13600;50.816;4.416;2022-08-25T15:43:29;17.38;;;6.30;;
25752;SDS011;13600;50.816;4.416;2022-08-25T15:45:54;12.55;;;5.88;;
25752;SDS011;13600;50.816;4.416;2022-08-25T15:48:20;10.43;;;5.97;;
25752;SDS011;13600;50.816;4.416;2022-08-25T15:50:46;12.00;;;4.70;;
25752;SDS011;13600;50.816;4.416;2022-08-25T15:53:12;13.10;;;5.80;;
25752;SDS011;13600;50.816;4.416;2022-08-25T15:55:38;12.65;;;6.88;;
25752;SDS011;13600;50.816;4.416;2022-08-25T15:58:04;12.40;;;6.00;;
25752;SDS011;13600;50.816;4.416;2022-08-25T16:00:31;14.52;;;7.35;;
25752;SDS011;13600;50.816;4.416;2022-08-25T16:02:56;9.85;;;5.82;;
25752;SDS011;13600;50.816;4.416;2022-08-25T16:05:22;14.70;;;7.15;;
25752;SDS011;13600;50.816;4.416;2022-08-25T16:07:48;16.00;;;5.88;;
25752;SDS011;13600;50.816;4.416;2022-08-25T16:10:13;8.23;;;5.47;;
25752;SDS011;13600;50.816;4.416;2022-08-25T16:12:39;11.23;;;6.18;;
25752;SDS011;13600;50.816;4.416;2022-08-25T16:15:06;13.02;;;5.32;;
25752;SDS011;13600;50.816;4.416;2022-08-25T16:17:32;7.20;;;5.50;;
25752;SDS011;13600;50.816;4.416;2022-08-25T16:19:58;7.47;;;5.00;;
25752;SDS011;13600;50.816;4.416;2022-08-25T16:22:24;12.27;;;7.97;;
25752;SDS011;13600;50.816;4.416;2022-08-25T16:24:49;17.10;;;7.93;;
25752;SDS011;13600;50.816;4.416;2022-08-25T16:27:15;12.82;;;7.75;;
25752;SDS011;13600;50.816;4.416;2022-08-25T16:29:42;14.95;;;8.73;;
25752;SDS011;13600;50.816;4.416;2022-08-25T16:32:09;13.45;;;9.20;;
25752;SDS011;13600;50.816;4.416;2022-08-25T16:34:38;16.85;;;10.30;;
25752;SDS011;13600;50.816;4.416;2022-08-25T16:37:04;17.02;;;8.98;;
25752;SDS011;13600;50.816;4.416;2022-08-25T16:39:30;19.98;;;10.15;;
25752;SDS011;13600;50.816;4.416;2022-08-25T16:41:57;12.48;;;8.82;;
25752;SDS011;13600;50.816;4.416;2022-08-25T16:44:23;13.52;;;8.05;;
25752;SDS011;13600;50.816;4.416;2022-08-25T16:46:49;15.27;;;8.63;;
25752;SDS011;13600;50.816;4.416;2022-08-25T16:49:18;14.60;;;10.43;;
25752;SDS011;13600;50.816;4.416;2022-08-25T16:51:44;14.70;;;8.82;;
25752;SDS011;13600;50.816;4.416;2022-08-25T16:54:10;21.75;;;9.35;;
25752;SDS011;13600;50.816;4.416;2022-08-25T16:56:55;23.25;;;10.65;;
25752;SDS011;13600;50.816;4.416;2022-08-25T16:59:22;24.70;;;11.23;;
25752;SDS011;13600;50.816;4.416;2022-08-25T17:01:48;17.25;;;8.43;;
25752;SDS011;13600;50.816;4.416;2022-08-25T17:04:14;12.77;;;7.88;;
25752;SDS011;13600;50.816;4.416;2022-08-25T17:06:41;13.85;;;8.65;;
25752;SDS011;13600;50.816;4.416;2022-08-25T17:09:08;17.15;;;9.73;;
25752;SDS011;13600;50.816;4.416;2022-08-25T17:11:38;14.45;;;9.02;;
25752;SDS011;13600;50.816;4.416;2022-08-25T17:14:11;16.83;;;8.75;;
25752;SDS011;13600;50.816;4.416;2022-08-25T17:16:41;14.13;;;9.00;;
25752;SDS011;13600;50.816;4.416;2022-08-25T17:19:08;16.55;;;10.30;;
25752;SDS011;13600;50.816;4.416;2022-08-25T17:21:37;13.82;;;8.98;;